createdAt,value
2022-10-18T00:01:50.172Z,28.07
2022-10-18T00:04:20.948Z,28.07
2022-10-18T00:06:52.450Z,28.04
2022-10-18T00:09:23.341Z,28.15
2022-10-18T00:11:54.384Z,28.13
2022-10-18T00:14:25.707Z,28.16
2022-10-18T00:16:56.054Z,28.18
2022-10-18T00:19:29.210Z,28.21
2022-10-18T00:22:00.317Z,28.20
2022-10-18T00:24:31.176Z,28.20
2022-10-18T00:27:01.883Z,28.20
2022-10-18T00:29:32.726Z,28.16
2022-10-18T00:32:03.459Z,28.19
2022-10-18T00:34:34.107Z,28.15
2022-10-18T00:37:04.809Z,28.19
2022-10-18T00:39:35.768Z,28.21
2022-10-18T00:42:06.586Z,28.24
2022-10-18T00:44:37.183Z,28.26
2022-10-18T00:47:13.869Z,28.26
2022-10-18T00:49:49.142Z,28.30
2022-10-18T00:52:29.439Z,28.34
2022-10-18T00:55:01.454Z,28.36
2022-10-18T00:57:32.315Z,28.38
2022-10-18T01:00:03.638Z,28.38
2022-10-18T01:02:35.465Z,28.37
2022-10-18T01:05:06.551Z,28.38
2022-10-18T01:07:37.445Z,28.41
2022-10-18T01:10:37.445Z,28.41
2022-10-18T01:13:34.227Z,28.44
2022-10-18T01:16:15.948Z,28.45
2022-10-18T01:19:01.851Z,28.45
2022-10-18T01:21:35.609Z,28.46
2022-10-18T01:24:47.991Z,28.47
2022-10-18T01:27:39.319Z,28.49
2022-10-18T01:30:27.571Z,28.48
2022-10-18T01:33:06.627Z,28.49
2022-10-18T01:35:43.822Z,28.50
2022-10-18T01:38:20.649Z,28.53
2022-10-18T01:40:54.357Z,28.53
2022-10-18T01:43:27.263Z,28.52
2022-10-18T01:45:59.780Z,28.52
2022-10-18T01:48:30.621Z,28.54
2022-10-18T01:51:01.558Z,28.54
2022-10-18T01:53:35.472Z,28.55
2022-10-18T01:56:29.624Z,28.54
2022-10-18T01:59:18.124Z,28.56
2022-10-18T02:02:09.840Z,28.56
2022-10-18T02:04:52.390Z,28.55
2022-10-18T02:07:35.231Z,28.55
2022-10-18T02:10:37.917Z,28.57
2022-10-18T02:13:09.814Z,28.55
2022-10-18T02:15:48.240Z,28.59
2022-10-18T02:18:28.471Z,28.58
2022-10-18T02:21:01.024Z,28.58
2022-10-18T02:23:32.237Z,28.60
2022-10-18T02:26:03.546Z,28.60
2022-10-18T02:28:34.793Z,28.59
2022-10-18T02:31:14.667Z,28.60
2022-10-18T02:33:56.390Z,28.56
2022-10-18T02:36:39.381Z,28.63
2022-10-18T02:39:20.173Z,28.63
2022-10-18T02:41:52.305Z,28.62
2022-10-18T02:44:23.115Z,28.61
2022-10-18T02:46:53.921Z,28.62
2022-10-18T02:49:24.952Z,28.65
2022-10-18T02:51:55.659Z,28.66
2022-10-18T02:54:26.937Z,28.67
2022-10-18T02:56:57.627Z,28.65
2022-10-18T02:59:28.400Z,28.68
2022-10-18T03:01:59.174Z,28.68
2022-10-18T03:04:29.913Z,28.67
2022-10-18T03:07:00.572Z,28.69
2022-10-18T03:09:31.193Z,28.65
2022-10-18T03:12:02.816Z,28.66
2022-10-18T03:14:33.581Z,28.67
2022-10-18T03:17:04.498Z,28.69
2022-10-18T03:19:35.243Z,28.71
2022-10-18T03:22:06.024Z,28.69
2022-10-18T03:24:36.880Z,28.74
2022-10-18T03:27:07.851Z,28.73
2022-10-18T03:29:38.673Z,28.72
2022-10-18T03:32:09.656Z,28.76
2022-10-18T03:34:40.104Z,28.73
2022-10-18T03:37:10.923Z,28.74
2022-10-18T03:39:41.590Z,28.75
2022-10-18T03:42:12.793Z,28.76
2022-10-18T03:44:43.178Z,28.76
2022-10-18T03:47:14.699Z,28.74
2022-10-18T03:49:45.366Z,28.77
2022-10-18T03:52:16.002Z,28.78
2022-10-18T03:54:46.683Z,28.80
2022-10-18T03:57:17.401Z,28.79
2022-10-18T03:59:48.113Z,28.81
2022-10-18T04:02:18.878Z,28.84
2022-10-18T04:04:49.604Z,28.83
2022-10-18T04:07:20.161Z,28.85
2022-10-18T04:09:50.968Z,28.88
2022-10-18T04:12:21.853Z,28.89
2022-10-18T04:14:52.557Z,28.88
2022-10-18T04:17:23.291Z,28.90
2022-10-18T04:19:53.948Z,28.86
2022-10-18T04:22:24.706Z,28.87
2022-10-18T04:24:59.472Z,28.90
2022-10-18T04:27:30.611Z,28.89
2022-10-18T04:30:01.520Z,28.88
2022-10-18T04:32:32.467Z,28.92
2022-10-18T04:35:03.291Z,28.93
2022-10-18T04:37:34.568Z,28.93
2022-10-18T04:40:06.040Z,28.95
2022-10-18T04:42:37.253Z,28.96
2022-10-18T04:45:08.629Z,28.96
2022-10-18T04:47:39.563Z,28.96
2022-10-18T04:50:10.739Z,28.97
2022-10-18T04:52:41.632Z,28.98
2022-10-18T04:55:12.507Z,28.99
2022-10-18T04:57:43.218Z,29.01
2022-10-18T05:00:14.652Z,29.01
2022-10-18T05:02:45.400Z,29.01
2022-10-18T05:05:16.187Z,29.03
2022-10-18T05:07:46.793Z,29.02
2022-10-18T05:10:17.691Z,29.03
2022-10-18T05:12:48.448Z,29.05
2022-10-18T05:15:19.299Z,29.06
2022-10-18T05:17:50.032Z,29.08
2022-10-18T05:20:20.901Z,29.09
2022-10-18T05:22:51.486Z,29.10
2022-10-18T05:25:22.343Z,29.10
2022-10-18T05:27:53.092Z,29.12
2022-10-18T05:30:24.452Z,29.13
2022-10-18T05:32:54.753Z,29.14
2022-10-18T05:35:25.432Z,29.14
2022-10-18T05:37:56.310Z,29.14
2022-10-18T05:40:27.108Z,29.16
2022-10-18T05:42:57.862Z,29.17
2022-10-18T05:45:28.599Z,29.16
2022-10-18T05:47:59.642Z,29.19
2022-10-18T05:50:30.389Z,29.16
2022-10-18T05:53:11.968Z,29.20
2022-10-18T05:55:43.410Z,29.21
2022-10-18T05:58:14.197Z,29.19
2022-10-18T06:00:45.119Z,29.21
2022-10-18T06:03:16.017Z,29.22
2022-10-18T06:05:47.045Z,29.23
2022-10-18T06:08:17.825Z,29.22
2022-10-18T06:10:48.541Z,29.25
2022-10-18T06:13:19.425Z,29.26
2022-10-18T06:15:50.335Z,29.29
2022-10-18T06:18:21.046Z,29.29
2022-10-18T06:20:52.092Z,29.29
2022-10-18T06:23:22.772Z,29.28
2022-10-18T06:25:53.474Z,29.29
2022-10-18T06:28:24.371Z,29.30
2022-10-18T06:30:55.183Z,29.30
2022-10-18T06:33:26.583Z,29.29
2022-10-18T06:35:58.026Z,29.32
2022-10-18T06:38:29.685Z,29.29
2022-10-18T06:41:03.051Z,29.31
2022-10-18T06:43:34.036Z,29.31
2022-10-18T06:46:07.801Z,29.32
2022-10-18T06:48:39.829Z,29.35
2022-10-18T06:51:11.475Z,29.32
2022-10-18T06:53:44.517Z,29.33
2022-10-18T06:56:30.092Z,29.36
2022-10-18T06:59:00.895Z,29.39
2022-10-18T07:01:31.740Z,29.36
2022-10-18T07:04:02.637Z,29.39
2022-10-18T07:06:33.475Z,29.36
2022-10-18T07:09:05.746Z,29.36
2022-10-18T07:11:36.585Z,29.37
2022-10-18T07:14:08.758Z,29.37
2022-10-18T07:16:39.736Z,29.37
2022-10-18T07:19:10.640Z,29.37
2022-10-18T07:21:41.360Z,29.39
2022-10-18T07:24:12.057Z,29.39
2022-10-18T07:26:42.752Z,29.37
2022-10-18T07:29:15.037Z,29.40
2022-10-18T07:31:45.893Z,29.41
2022-10-18T07:34:17.081Z,29.40
2022-10-18T07:36:47.865Z,29.40
2022-10-18T07:39:18.712Z,29.39
2022-10-18T07:41:49.594Z,29.43
2022-10-18T07:44:20.489Z,29.45
2022-10-18T07:46:51.158Z,29.45
2022-10-18T07:49:21.887Z,29.40
2022-10-18T07:51:52.471Z,29.45
2022-10-18T07:54:23.393Z,29.44
2022-10-18T07:56:54.276Z,29.42
2022-10-18T07:59:25.116Z,29.45
2022-10-18T08:01:55.901Z,29.42
2022-10-18T08:04:26.802Z,29.42
2022-10-18T08:06:57.511Z,29.43
2022-10-18T08:09:28.396Z,29.43
2022-10-18T08:11:59.191Z,29.44
2022-10-18T08:14:29.865Z,29.43
2022-10-18T08:17:00.649Z,29.46
2022-10-18T08:19:31.447Z,29.47
2022-10-18T08:22:02.337Z,29.45
2022-10-18T08:24:34.234Z,29.47
2022-10-18T08:27:05.924Z,29.49
2022-10-18T08:29:36.758Z,29.52
2022-10-18T08:32:07.919Z,29.52
2022-10-18T08:37:14.586Z,29.56
2022-10-18T08:39:45.188Z,29.53
2022-10-18T08:42:40.455Z,29.55
2022-10-18T08:45:30.020Z,29.54
2022-10-18T08:48:09.445Z,29.56
2022-10-18T08:50:41.364Z,29.57
2022-10-18T08:53:36.167Z,29.56
2022-10-18T08:56:17.485Z,29.56
2022-10-18T08:58:48.226Z,29.56
2022-10-18T09:01:56.185Z,29.55
2022-10-18T09:04:33.841Z,29.55
2022-10-18T09:07:19.565Z,29.55
2022-10-18T09:09:56.162Z,29.58
2022-10-18T09:12:47.934Z,29.57
2022-10-18T09:15:29.784Z,29.59
2022-10-18T09:18:17.501Z,29.56
2022-10-18T09:20:59.445Z,29.56
2022-10-18T09:23:46.785Z,29.57
2022-10-18T09:26:24.109Z,29.56
2022-10-18T09:29:26.299Z,29.59
2022-10-18T09:32:03.892Z,29.57
2022-10-18T09:34:55.026Z,29.57
2022-10-18T09:37:28.639Z,29.58
2022-10-18T09:40:09.927Z,29.59
2022-10-18T09:42:45.241Z,29.58
2022-10-18T09:45:27.273Z,29.56
2022-10-18T09:48:15.454Z,29.55
2022-10-18T09:50:54.113Z,29.56
2022-10-18T09:54:00.308Z,29.57
2022-10-18T09:56:44.739Z,29.59
2022-10-18T09:59:43.306Z,29.62
2022-10-18T10:02:24.988Z,29.62
2022-10-18T10:04:59.641Z,29.60
2022-10-18T10:07:37.258Z,29.62
2022-10-18T10:10:27.830Z,29.62
2022-10-18T10:13:25.560Z,29.64
2022-10-18T10:16:05.243Z,29.62
2022-10-18T10:18:41.996Z,29.65
2022-10-18T10:21:19.093Z,29.62
2022-10-18T10:23:56.766Z,29.60
2022-10-18T10:26:35.314Z,29.59
2022-10-18T13:11:14.352Z,28.86
2022-10-18T13:14:23.467Z,28.91
2022-10-18T13:17:00.337Z,28.99
2022-10-18T13:19:36.873Z,29.06
2022-10-18T13:22:41.499Z,29.14
2022-10-18T13:25:57.459Z,29.25
2022-10-18T13:29:07.858Z,29.31
2022-10-18T13:31:42.435Z,29.41
2022-10-18T13:34:25.721Z,29.40
2022-10-18T13:37:29.124Z,29.42
2022-10-18T13:40:19.233Z,29.49
2022-10-18T13:42:49.963Z,29.50
2022-10-18T13:45:36.116Z,29.54
2022-10-18T13:48:34.003Z,29.57
2022-10-18T13:51:25.725Z,29.57
2022-10-18T13:54:12.518Z,29.55
2022-10-18T13:56:52.479Z,29.53
2022-10-18T13:59:31.911Z,29.57
2022-10-18T14:02:30.649Z,29.60
2022-10-18T14:05:29.030Z,29.53
2022-10-18T14:08:51.778Z,29.58
2022-10-18T14:11:37.150Z,29.63
2022-10-18T14:14:32.541Z,29.63
2022-10-18T14:17:24.494Z,29.65
2022-10-18T14:20:20.173Z,29.67
2022-10-18T14:23:04.398Z,29.69
2022-10-18T14:25:38.717Z,29.69
2022-10-18T14:28:17.792Z,29.66
2022-10-18T14:31:09.836Z,29.68
2022-10-18T14:33:57.067Z,29.69
2022-10-18T14:36:32.505Z,29.73
2022-10-18T14:39:05.956Z,29.74
2022-10-18T14:41:50.327Z,29.71
2022-10-18T14:44:24.139Z,29.71
2022-10-18T14:47:19.436Z,29.70
2022-10-18T14:49:50.717Z,29.68
2022-10-18T14:52:35.658Z,29.68
2022-10-18T14:55:06.974Z,29.68
2022-10-18T14:57:40.498Z,29.69
2022-10-18T15:00:21.765Z,29.73
2022-10-18T15:02:52.675Z,29.75
2022-10-18T15:05:27.326Z,29.70
2022-10-18T15:07:59.548Z,29.70
2022-10-18T15:10:36.733Z,29.71
2022-10-18T15:13:10.461Z,29.71
2022-10-18T15:15:42.575Z,29.72
2022-10-18T15:18:24.785Z,29.70
2022-10-18T15:21:34.114Z,29.70
2022-10-18T15:24:31.432Z,29.70
2022-10-18T15:27:24.106Z,29.69
2022-10-18T15:29:55.514Z,29.67
2022-10-18T15:32:31.315Z,29.66
2022-10-18T15:35:24.909Z,29.64
2022-10-18T15:37:58.937Z,29.62
2022-10-18T15:40:36.430Z,29.63
2022-10-18T15:43:26.959Z,29.63
2022-10-18T15:46:05.286Z,29.63
2022-10-18T15:48:43.409Z,29.66
2022-10-18T15:51:53.976Z,29.67
2022-10-18T15:54:33.370Z,29.63
2022-10-18T15:57:11.383Z,29.61
2022-10-18T15:59:56.568Z,29.65
2022-10-18T16:02:27.573Z,29.61
2022-10-18T16:04:58.335Z,29.63
2022-10-18T16:07:29.211Z,29.64
2022-10-18T16:09:59.962Z,29.62
2022-10-18T16:12:30.716Z,29.62
2022-10-18T16:15:01.491Z,29.61
2022-10-18T16:17:32.537Z,29.61
2022-10-18T16:20:03.607Z,29.58
2022-10-18T16:22:36.279Z,29.59
2022-10-18T16:25:08.332Z,29.56
2022-10-18T16:27:39.200Z,29.57
2022-10-18T16:30:31.303Z,29.58
2022-10-18T16:33:01.948Z,29.56
2022-10-18T16:35:32.803Z,29.52
2022-10-18T16:38:03.476Z,29.50
2022-10-18T16:40:35.518Z,29.53
2022-10-18T16:43:08.658Z,29.53
2022-10-18T16:45:39.551Z,29.51
2022-10-18T16:48:10.397Z,29.53
2022-10-18T16:50:41.066Z,29.52
2022-10-18T16:53:11.903Z,29.52
2022-10-18T16:55:44.028Z,29.53
2022-10-18T16:58:20.408Z,29.55
2022-10-18T17:00:51.613Z,29.51
2022-10-18T17:03:23.347Z,29.53
2022-10-18T17:05:54.652Z,29.55
2022-10-18T17:08:28.912Z,29.54
2022-10-18T17:11:02.657Z,29.56
2022-10-18T17:13:33.627Z,29.52
2022-10-18T17:16:06.556Z,29.49
2022-10-18T17:18:37.389Z,29.49
2022-10-18T17:21:08.242Z,29.51
2022-10-18T17:23:39.114Z,29.51
2022-10-18T17:26:27.921Z,29.47
2022-10-18T17:29:03.580Z,29.51
2022-10-18T17:31:35.602Z,29.49
2022-10-18T17:34:07.498Z,29.50
2022-10-18T17:36:38.376Z,29.49
2022-10-18T17:39:09.175Z,29.50
2022-10-18T17:41:40.339Z,29.52
2022-10-18T17:44:10.936Z,29.52
2022-10-18T17:46:41.744Z,29.50
2022-10-18T17:49:12.642Z,29.49
2022-10-18T17:51:44.190Z,29.46
2022-10-18T17:54:15.543Z,29.51
2022-10-18T17:56:46.026Z,29.49
2022-10-18T17:59:16.820Z,29.47
2022-10-18T18:04:23.131Z,29.46
2022-10-18T18:06:55.455Z,29.45
2022-10-18T18:09:26.228Z,29.45
2022-10-18T18:11:57.957Z,29.45
2022-10-18T18:14:29.043Z,29.43
2022-10-18T18:17:00.131Z,29.42
2022-10-18T18:19:30.980Z,29.43
2022-10-18T18:22:02.097Z,29.43
2022-10-18T18:24:32.937Z,29.44
2022-10-18T18:27:03.652Z,29.42
2022-10-18T18:29:34.570Z,29.43
2022-10-18T18:32:06.188Z,29.42
2022-10-18T18:34:37.198Z,29.42
2022-10-18T18:37:08.003Z,29.44
2022-10-18T18:39:41.463Z,29.40
2022-10-18T18:42:13.406Z,29.39
2022-10-18T18:44:48.533Z,29.39
2022-10-18T18:49:54.925Z,29.36
2022-10-18T18:52:25.607Z,29.40
2022-10-18T18:54:56.345Z,29.35
2022-10-18T18:57:27.179Z,29.35
2022-10-18T18:59:57.981Z,29.34
2022-10-18T19:02:28.731Z,29.35
2022-10-18T19:04:59.490Z,29.35
2022-10-18T19:07:30.280Z,29.37
2022-10-18T19:10:01.232Z,29.35
2022-10-18T19:12:32.073Z,29.35
2022-10-18T19:15:03.105Z,29.35
2022-10-18T19:17:34.212Z,29.34
2022-10-18T19:20:05.941Z,29.35
2022-10-18T19:22:36.703Z,29.35
2022-10-18T19:25:08.744Z,29.32
2022-10-18T19:27:40.155Z,29.32
2022-10-18T19:30:15.071Z,29.30
2022-10-18T19:32:45.926Z,29.32
2022-10-18T19:35:16.770Z,29.32
2022-10-18T19:37:47.772Z,29.30
2022-10-18T19:40:18.660Z,29.31
2022-10-18T19:42:49.300Z,29.30
2022-10-18T19:45:20.221Z,29.30
2022-10-18T19:47:50.979Z,29.29
2022-10-18T19:50:21.894Z,29.28
2022-10-18T19:52:52.693Z,29.30
2022-10-18T19:55:23.781Z,29.29
2022-10-18T19:57:54.480Z,29.29
2022-10-18T20:00:25.206Z,29.28
2022-10-18T20:02:56.022Z,29.28
2022-10-18T20:05:26.942Z,29.30
2022-10-18T20:07:57.659Z,29.30
2022-10-18T20:10:28.416Z,29.28
2022-10-18T20:12:59.139Z,29.28
2022-10-18T20:15:30.333Z,29.29
2022-10-18T20:18:01.034Z,29.25
2022-10-18T20:20:31.778Z,29.26
2022-10-18T20:23:02.496Z,29.24
2022-10-18T20:25:33.276Z,29.25
2022-10-18T20:28:04.200Z,29.21
2022-10-18T20:30:35.405Z,29.22
2022-10-18T20:33:06.300Z,29.22
2022-10-18T20:35:37.078Z,29.22
2022-10-18T20:38:07.763Z,29.22
2022-10-18T20:40:38.488Z,29.24
2022-10-18T20:43:09.233Z,29.22
2022-10-18T20:45:39.717Z,29.23
2022-10-18T20:48:10.417Z,29.21
2022-10-18T20:50:44.673Z,29.21
2022-10-18T20:53:15.473Z,29.21
2022-10-18T20:55:46.511Z,29.20
2022-10-18T20:58:17.229Z,29.23
2022-10-18T21:00:48.192Z,29.20
2022-10-18T21:03:18.994Z,29.22
2022-10-18T21:05:49.730Z,29.20
2022-10-18T21:08:20.531Z,29.18
2022-10-18T21:10:51.273Z,29.16
2022-10-18T21:13:22.037Z,29.17
2022-10-18T21:16:02.688Z,29.10
2022-10-18T21:18:36.274Z,29.15
2022-10-18T21:21:15.812Z,29.19
2022-10-18T21:23:47.096Z,29.15
2022-10-18T21:26:18.641Z,29.19
2022-10-18T21:28:50.262Z,29.18
2022-10-18T21:31:24.012Z,29.19
2022-10-18T21:34:03.134Z,29.17
2022-10-18T21:36:36.104Z,29.17
2022-10-18T21:39:09.220Z,29.12
2022-10-18T21:41:40.487Z,29.15
2022-10-18T21:44:11.544Z,29.14
2022-10-18T21:46:45.541Z,29.16
2022-10-18T21:49:17.330Z,29.13
2022-10-18T21:51:48.215Z,29.05
2022-10-18T21:54:19.666Z,29.11
2022-10-18T21:56:50.133Z,29.11
2022-10-18T21:59:20.906Z,29.10
2022-10-18T22:01:51.644Z,29.11
2022-10-18T22:04:27.590Z,29.05
2022-10-18T22:06:58.473Z,29.05
2022-10-18T22:09:29.496Z,29.08
2022-10-18T22:12:00.971Z,29.10
2022-10-18T22:14:32.093Z,29.10
2022-10-18T22:17:02.975Z,29.12
2022-10-18T22:19:33.882Z,29.10
2022-10-18T22:22:04.714Z,29.07
2022-10-18T22:27:06.278Z,28.94
2022-10-18T22:29:37.082Z,29.02
2022-10-18T22:32:08.012Z,29.05
2022-10-18T22:34:39.329Z,29.11
2022-10-18T22:37:13.928Z,29.08
2022-10-18T22:39:44.830Z,29.07
2022-10-18T22:42:15.596Z,29.04
2022-10-18T22:44:46.349Z,29.00
2022-10-18T22:47:17.299Z,29.02
2022-10-18T22:49:48.155Z,29.05
2022-10-18T22:52:19.131Z,29.07
2022-10-18T22:54:49.746Z,29.07
2022-10-18T22:57:20.771Z,29.08
2022-10-18T23:02:33.651Z,29.01
2022-10-18T23:05:04.481Z,28.93
2022-10-18T23:08:10.395Z,28.84
2022-10-18T23:10:42.572Z,28.80
2022-10-18T23:13:13.674Z,28.72
2022-10-18T23:15:44.443Z,28.77
2022-10-18T23:18:15.168Z,28.83
2022-10-18T23:20:46.146Z,28.88
2022-10-18T23:23:17.087Z,28.89
2022-10-18T23:25:51.081Z,28.91
2022-10-18T23:28:22.551Z,28.90
2022-10-18T23:30:53.189Z,28.88
2022-10-18T23:33:24.020Z,28.90
2022-10-18T23:35:54.921Z,28.88
2022-10-18T23:38:25.766Z,28.88
2022-10-18T23:40:56.699Z,28.90
2022-10-18T23:43:27.671Z,28.91
2022-10-18T23:45:58.550Z,28.92
2022-10-18T23:48:29.649Z,28.88
2022-10-18T23:51:19.190Z,28.92
2022-10-18T23:53:49.833Z,28.88
2022-10-18T23:56:20.577Z,28.89
2022-10-18T23:58:51.283Z,28.89
